Sea Carrier — 9V7734 — position and weather

sailwx.info

Track history (hours):
 
Tides and Currents Weather Stations Pressure Air Temp Water Temp Dewpoint Dewpoint Depression Visibility Wind Speed Wind Dir Waves Ship Positions

Sea Carrier

Last reported at 2017-Oct-20 08:25 UTC. Time now 2017-Oct-20 08:53 UTC.
Position N 39°10' W 010°06'.

Length 107 m; draft 8 m.

Type: Cargo ship. MMSI: 566837000.

Date/timePositionNaut miles runAvg speedWind from/ knotsBaromVisibWave heightAir tempDewpointWater temp
2017-Oct-20 08:25N 39°10' W 010°06'  
2017-Oct-18 02:05N 48°27' W 006°09'110.0
2017-Oct-18 01:56N 48°29' W 006°08'4 9.9
2017-Oct-18 01:30N 48°33' W 006°05'610.0
2017-Oct-18 00:57N 48°37' W 006°01'1010.4
2017-Oct-17 23:57N 48°47' W 005°54'9911.2
2017-Oct-17 15:05N 49°40' W 003°45'1 9.6
2017-Oct-17 15:00N 49°40' W 003°44'1510.0
2017-Oct-17 13:29N 49°47' W 003°24'511.3
2017-Oct-17 13:00N 49°50' W 003°16'712.0
2017-Oct-17 12:27N 49°53' W 003°07'612.6
2017-Oct-17 12:00N 49°56' W 002°60'813.0
2017-Oct-17 11:22N 49°59' W 002°48'513.1
2017-Oct-17 10:59N 50°01' W 002°40'1612.4
2017-Oct-17 09:41N 50°05' W 002°16'910.8
2017-Oct-17 08:53N 50°08' W 002°03'18 8.5
2017-Oct-17 06:46N 50°13' W 001°37'2 6.8
2017-Oct-17 06:28N 50°14' W 001°33'25 7.5
2017-Oct-17 03:07N 50°21' W 000°56'610.7
2017-Oct-17 02:34N 50°23' W 000°47'111.5
2017-Oct-17 02:28N 50°23' W 000°46'1411.6
2017-Oct-17 01:17N 50°27' W 000°25'311.5
2017-Oct-17 01:00N 50°28' W 000°20'611.4
2017-Oct-17 00:30N 50°29' W 000°11'611.2
2017-Oct-17 00:01N 50°31' W 000°03'610.9
2017-Oct-16 23:30N 50°33' E 000°05'510.7
2017-Oct-16 23:00N 50°34' E 000°13'510.2
2017-Oct-16 22:31N 50°36' E 000°21'510.0
2017-Oct-16 22:01N 50°37' E 000°28'5 9.8
2017-Oct-16 21:30N 50°39' E 000°36'5 9.6
2017-Oct-16 21:00N 50°42' E 000°42'5 9.3
2017-Oct-16 20:30N 50°44' E 000°48'4 8.9
2017-Oct-16 20:01N 50°47' E 000°54'5 9.0
2017-Oct-16 19:30N 50°49' E 000°60'5 9.2
2017-Oct-16 18:55N 50°53' E 001°06'410.0
2017-Oct-16 18:29N 50°55' E 001°11'510.5
2017-Oct-16 17:59N 50°59' E 001°18'611.4
2017-Oct-16 17:30N 51°02' E 001°24'612.2
2017-Oct-16 17:01N 51°06' E 001°32'612.3
2017-Oct-16 16:30N 51°10' E 001°39'612.2
2017-Oct-16 16:00N 51°14' E 001°46'611.8
2017-Oct-16 15:30N 51°19' E 001°51'611.2
2017-Oct-16 15:01N 51°24' E 001°56'1110.5
2017-Oct-16 14:01N 51°32' E 002°07'510.1
2017-Oct-16 13:30N 51°36' E 002°12'510.1
2017-Oct-16 13:00N 51°40' E 002°17'510.0
2017-Oct-16 12:31N 51°44' E 002°22'6 9.8
2017-Oct-16 11:57N 51°49' E 002°27'4 9.5
2017-Oct-16 11:30N 51°53' E 002°30'5 9.3
2017-Oct-16 11:00N 51°56' E 002°35'5 9.6
2017-Oct-16 10:30N 51°59' E 002°41'610.2
2017-Oct-16 09:56N 52°03' E 002°47'510.7
2017-Oct-16 09:28N 52°07' E 002°52'511.2
2017-Oct-16 09:00N 52°11' E 002°57'1911.9
2017-Oct-16 07:23N 52°27' E 003°17'512.3
2017-Oct-16 06:58N 52°31' E 003°22'3212.1
2017-Oct-16 04:21N 52°55' E 003°55'411.3
2017-Oct-16 03:58N 52°58' E 004°00'1011.0
2017-Oct-16 03:06N 53°05' E 004°12'110.8
2017-Oct-16 02:59N 53°05' E 004°13'510.7
2017-Oct-16 02:30N 53°09' E 004°20'2010.2
2017-Oct-16 00:29N 53°27' E 004°37'510.5
2017-Oct-16 00:00N 53°29' E 004°45'611.2
2017-Oct-15 23:30N 53°31' E 004°53'611.6
2017-Oct-15 23:00N 53°33' E 005°02'5511.5
2017-Oct-15 18:12N 53°51' E 006°31'410.5
2017-Oct-15 17:51N 53°52' E 006°37'410.4
2017-Oct-15 17:30N 53°53' E 006°43'3010.5
2017-Oct-15 14:36N 54°00' E 007°33'811.3
2017-Oct-15 13:56N 54°02' E 007°46'511.9
2017-Oct-15 13:30N 54°02' E 007°55'611.9
2017-Oct-15 13:00N 54°01' E 008°05'611.8
2017-Oct-15 12:31N 54°00' E 008°14'713.3
2017-Oct-15 12:00N 53°59' E 008°26'714.0
2017-Oct-15 11:30N 53°57' E 008°37'714.2
2017-Oct-15 11:00N 53°52' E 008°44'612.2
2017-Oct-15 10:30N 53°51' E 008°55'611.8
2017-Oct-15 10:01N 53°52' E 009°04'3 6.0
2017-Oct-15 09:31N 53°54' E 009°09'0 0.4
2017-Oct-15 09:00N 53°54' E 009°09'2 4.6
2017-Oct-15 08:30N 53°55' E 009°12'4 7.1
2017-Oct-15 08:00N 53°58' E 009°16'3 6.9
2017-Oct-15 07:30N 54°01' E 009°18'4 7.5
2017-Oct-15 07:00N 54°05' E 009°19'4 7.4
2017-Oct-15 06:30N 54°09' E 009°21'4 7.7
2017-Oct-15 06:00N 54°10' E 009°27'4 8.1
2017-Oct-15 05:30N 54°12' E 009°33'4 7.6
2017-Oct-15 05:01N 54°15' E 009°37'4 7.7
2017-Oct-15 04:30N 54°18' E 009°41'4 7.9
2017-Oct-15 04:01N 54°21' E 009°46'19 5.0
2017-Oct-15 00:11N 54°29' E 010°16'2 8.3
2017-Oct-14 23:57N 54°30' E 010°18'510.4
2017-Oct-14 23:27N 54°32' E 010°26'510.9
2017-Oct-14 23:01N 54°34' E 010°34'510.7
2017-Oct-14 22:31N 54°35' E 010°43'510.4
2017-Oct-14 22:00N 54°35' E 010°52'510.2
2017-Oct-14 21:30N 54°36' E 011°00'510.2
2017-Oct-14 21:00N 54°36' E 011°09'510.6
2017-Oct-14 20:30N 54°35' E 011°18'510.4
2017-Oct-14 20:00N 54°32' E 011°25'611.1
2017-Oct-14 19:30N 54°29' E 011°34'611.3
2017-Oct-14 19:00N 54°27' E 011°43'1610.8
2017-Oct-14 17:33N 54°27' E 012°10'010.5
2017-Oct-14 17:31N 54°28' E 012°10'510.9
2017-Oct-14 17:00N 54°33' E 012°13'510.3
2017-Oct-14 16:30N 54°37' E 012°17'610.7
2017-Oct-14 15:58N 54°41' E 012°26'5210.8
2017-Oct-14 11:08N 55°02' E 013°49'210.7
2017-Oct-14 10:56N 55°02' E 013°52'1110.4
2017-Oct-14 09:52N 55°08' E 014°09'510.7
2017-Oct-14 09:23N 55°12' E 014°15'410.6
2017-Oct-14 09:00N 55°15' E 014°19'710.7
2017-Oct-14 08:23N 55°20' E 014°27'1210.5
2017-Oct-14 07:13N 55°28' E 014°43'2010.8
2017-Oct-14 05:23N 55°38' E 015°13'410.7
2017-Oct-14 05:00N 55°41' E 015°19'510.8
2017-Oct-14 04:30N 55°43' E 015°27'510.7
2017-Oct-14 04:00N 55°46' E 015°35'510.9
2017-Oct-14 03:30N 55°49' E 015°44'611.0
2017-Oct-14 03:01N 55°52' E 015°52'611.1
2017-Oct-14 02:30N 55°55' E 016°00'611.2
2017-Oct-14 02:00N 55°58' E 016°09'611.1
2017-Oct-14 01:30N 56°00' E 016°18'611.2
2017-Oct-14 01:00N 56°03' E 016°26'611.4
2017-Oct-14 00:30N 56°06' E 016°35'611.5
2017-Oct-13 23:59N 56°09' E 016°44'611.3
2017-Oct-13 23:29N 56°15' E 016°49'511.3
2017-Oct-13 23:00N 56°19' E 016°53'711.2
2017-Oct-13 22:25N 56°25' E 016°58'511.2
2017-Oct-13 21:59N 56°30' E 017°01'21710.8
2017-Oct-13 01:57N 59°52' E 019°32'511.4
2017-Oct-13 01:29N 59°56' E 019°26'611.9
2017-Oct-13 01:00N 60°00' E 019°19'611.9
2017-Oct-13 00:30N 60°05' E 019°11'611.8
2017-Oct-13 00:00N 60°10' E 019°03'611.4
2017-Oct-12 23:30N 60°15' E 019°00'611.7
2017-Oct-12 23:00N 60°21' E 019°00'  
Track history (hours):
 
Tides and Currents Weather Stations Pressure Air Temp Water Temp Dewpoint Dewpoint Depression Visibility Wind Speed Wind Dir Waves Ship Positions

Sea Carrier

Last reported at 2017-Oct-20 08:25 UTC. Time now 2017-Oct-20 08:53 UTC.
Position N 39°10' W 010°06'.

Length 107 m; draft 8 m.

Type: Cargo ship. MMSI: 566837000.

Date/timePositionNaut miles runAvg speedWind from/ knotsBaromVisibWave heightAir tempDewpointWater temp
2017-Oct-20 08:25N 39°10' W 010°06'  
2017-Oct-18 02:05N 48°27' W 006°09'110.0
2017-Oct-18 01:56N 48°29' W 006°08'4 9.9
2017-Oct-18 01:30N 48°33' W 006°05'610.0
2017-Oct-18 00:57N 48°37' W 006°01'1010.4
2017-Oct-17 23:57N 48°47' W 005°54'9911.2
2017-Oct-17 15:05N 49°40' W 003°45'1 9.6
2017-Oct-17 15:00N 49°40' W 003°44'1510.0
2017-Oct-17 13:29N 49°47' W 003°24'511.3
2017-Oct-17 13:00N 49°50' W 003°16'712.0
2017-Oct-17 12:27N 49°53' W 003°07'612.6
2017-Oct-17 12:00N 49°56' W 002°60'813.0
2017-Oct-17 11:22N 49°59' W 002°48'513.1
2017-Oct-17 10:59N 50°01' W 002°40'1612.4
2017-Oct-17 09:41N 50°05' W 002°16'910.8
2017-Oct-17 08:53N 50°08' W 002°03'18 8.5
2017-Oct-17 06:46N 50°13' W 001°37'2 6.8
2017-Oct-17 06:28N 50°14' W 001°33'25 7.5
2017-Oct-17 03:07N 50°21' W 000°56'610.7
2017-Oct-17 02:34N 50°23' W 000°47'111.5
2017-Oct-17 02:28N 50°23' W 000°46'1411.6
2017-Oct-17 01:17N 50°27' W 000°25'311.5
2017-Oct-17 01:00N 50°28' W 000°20'611.4
2017-Oct-17 00:30N 50°29' W 000°11'611.2
2017-Oct-17 00:01N 50°31' W 000°03'610.9
2017-Oct-16 23:30N 50°33' E 000°05'510.7
2017-Oct-16 23:00N 50°34' E 000°13'510.2
2017-Oct-16 22:31N 50°36' E 000°21'510.0
2017-Oct-16 22:01N 50°37' E 000°28'5 9.8
2017-Oct-16 21:30N 50°39' E 000°36'5 9.6
2017-Oct-16 21:00N 50°42' E 000°42'5 9.3
2017-Oct-16 20:30N 50°44' E 000°48'4 8.9
2017-Oct-16 20:01N 50°47' E 000°54'5 9.0
2017-Oct-16 19:30N 50°49' E 000°60'5 9.2
2017-Oct-16 18:55N 50°53' E 001°06'410.0
2017-Oct-16 18:29N 50°55' E 001°11'510.5
2017-Oct-16 17:59N 50°59' E 001°18'611.4
2017-Oct-16 17:30N 51°02' E 001°24'612.2
2017-Oct-16 17:01N 51°06' E 001°32'612.3
2017-Oct-16 16:30N 51°10' E 001°39'612.2
2017-Oct-16 16:00N 51°14' E 001°46'611.8
2017-Oct-16 15:30N 51°19' E 001°51'611.2
2017-Oct-16 15:01N 51°24' E 001°56'1110.5
2017-Oct-16 14:01N 51°32' E 002°07'510.1
2017-Oct-16 13:30N 51°36' E 002°12'510.1
2017-Oct-16 13:00N 51°40' E 002°17'510.0
2017-Oct-16 12:31N 51°44' E 002°22'6 9.8
2017-Oct-16 11:57N 51°49' E 002°27'4 9.5
2017-Oct-16 11:30N 51°53' E 002°30'5 9.3
2017-Oct-16 11:00N 51°56' E 002°35'5 9.6
2017-Oct-16 10:30N 51°59' E 002°41'610.2
2017-Oct-16 09:56N 52°03' E 002°47'510.7
2017-Oct-16 09:28N 52°07' E 002°52'511.2
2017-Oct-16 09:00N 52°11' E 002°57'1911.9
2017-Oct-16 07:23N 52°27' E 003°17'512.3
2017-Oct-16 06:58N 52°31' E 003°22'3212.1
2017-Oct-16 04:21N 52°55' E 003°55'411.3
2017-Oct-16 03:58N 52°58' E 004°00'1011.0
2017-Oct-16 03:06N 53°05' E 004°12'110.8
2017-Oct-16 02:59N 53°05' E 004°13'510.7
2017-Oct-16 02:30N 53°09' E 004°20'2010.2
2017-Oct-16 00:29N 53°27' E 004°37'510.5
2017-Oct-16 00:00N 53°29' E 004°45'611.2
2017-Oct-15 23:30N 53°31' E 004°53'611.6
2017-Oct-15 23:00N 53°33' E 005°02'5511.5
2017-Oct-15 18:12N 53°51' E 006°31'410.5
2017-Oct-15 17:51N 53°52' E 006°37'410.4
2017-Oct-15 17:30N 53°53' E 006°43'3010.5
2017-Oct-15 14:36N 54°00' E 007°33'811.3
2017-Oct-15 13:56N 54°02' E 007°46'511.9
2017-Oct-15 13:30N 54°02' E 007°55'611.9
2017-Oct-15 13:00N 54°01' E 008°05'611.8
2017-Oct-15 12:31N 54°00' E 008°14'713.3
2017-Oct-15 12:00N 53°59' E 008°26'714.0
2017-Oct-15 11:30N 53°57' E 008°37'714.2
2017-Oct-15 11:00N 53°52' E 008°44'612.2
2017-Oct-15 10:30N 53°51' E 008°55'611.8
2017-Oct-15 10:01N 53°52' E 009°04'3 6.0
2017-Oct-15 09:31N 53°54' E 009°09'0 0.4
2017-Oct-15 09:00N 53°54' E 009°09'2 4.6
2017-Oct-15 08:30N 53°55' E 009°12'4 7.1
2017-Oct-15 08:00N 53°58' E 009°16'3 6.9
2017-Oct-15 07:30N 54°01' E 009°18'4 7.5
2017-Oct-15 07:00N 54°05' E 009°19'4 7.4
2017-Oct-15 06:30N 54°09' E 009°21'4 7.7
2017-Oct-15 06:00N 54°10' E 009°27'4 8.1
2017-Oct-15 05:30N 54°12' E 009°33'4 7.6
2017-Oct-15 05:01N 54°15' E 009°37'4 7.7
2017-Oct-15 04:30N 54°18' E 009°41'4 7.9
2017-Oct-15 04:01N 54°21' E 009°46'19 5.0
2017-Oct-15 00:11N 54°29' E 010°16'2 8.3
2017-Oct-14 23:57N 54°30' E 010°18'510.4
2017-Oct-14 23:27N 54°32' E 010°26'510.9
2017-Oct-14 23:01N 54°34' E 010°34'510.7
2017-Oct-14 22:31N 54°35' E 010°43'510.4
2017-Oct-14 22:00N 54°35' E 010°52'510.2
2017-Oct-14 21:30N 54°36' E 011°00'510.2
2017-Oct-14 21:00N 54°36' E 011°09'510.6
2017-Oct-14 20:30N 54°35' E 011°18'510.4
2017-Oct-14 20:00N 54°32' E 011°25'611.1
2017-Oct-14 19:30N 54°29' E 011°34'611.3
2017-Oct-14 19:00N 54°27' E 011°43'1610.8
2017-Oct-14 17:33N 54°27' E 012°10'010.5
2017-Oct-14 17:31N 54°28' E 012°10'510.9
2017-Oct-14 17:00N 54°33' E 012°13'510.3
2017-Oct-14 16:30N 54°37' E 012°17'610.7
2017-Oct-14 15:58N 54°41' E 012°26'5210.8
2017-Oct-14 11:08N 55°02' E 013°49'210.7
2017-Oct-14 10:56N 55°02' E 013°52'1110.4
2017-Oct-14 09:52N 55°08' E 014°09'510.7
2017-Oct-14 09:23N 55°12' E 014°15'410.6
2017-Oct-14 09:00N 55°15' E 014°19'710.7
2017-Oct-14 08:23N 55°20' E 014°27'1210.5
2017-Oct-14 07:13N 55°28' E 014°43'2010.8
2017-Oct-14 05:23N 55°38' E 015°13'410.7
2017-Oct-14 05:00N 55°41' E 015°19'510.8
2017-Oct-14 04:30N 55°43' E 015°27'510.7
2017-Oct-14 04:00N 55°46' E 015°35'510.9
2017-Oct-14 03:30N 55°49' E 015°44'611.0
2017-Oct-14 03:01N 55°52' E 015°52'611.1
2017-Oct-14 02:30N 55°55' E 016°00'611.2
2017-Oct-14 02:00N 55°58' E 016°09'611.1
2017-Oct-14 01:30N 56°00' E 016°18'611.2
2017-Oct-14 01:00N 56°03' E 016°26'611.4
2017-Oct-14 00:30N 56°06' E 016°35'611.5
2017-Oct-13 23:59N 56°09' E 016°44'611.3
2017-Oct-13 23:29N 56°15' E 016°49'511.3
2017-Oct-13 23:00N 56°19' E 016°53'711.2
2017-Oct-13 22:25N 56°25' E 016°58'511.2
2017-Oct-13 21:59N 56°30' E 017°01'21710.8
2017-Oct-13 01:57N 59°52' E 019°32'511.4
2017-Oct-13 01:29N 59°56' E 019°26'611.9
2017-Oct-13 01:00N 60°00' E 019°19'611.9
2017-Oct-13 00:30N 60°05' E 019°11'611.8
2017-Oct-13 00:00N 60°10' E 019°03'611.4
2017-Oct-12 23:30N 60°15' E 019°00'611.7
2017-Oct-12 23:00N 60°21' E 019°00'  

Dump ship's entire track history